Aeroporto :







RITROVATECI SU...

 
LOGIN :

Iscrizione | Disclaimer

   EN    FR    IT 

 









Sommario :    VFR   VFR Marginale   IFR   IFR Intensivo   IFR Molto Intensivo
Visibilità : 
Base nubi : 
>= 8 km
>= 3000ft
5 / 8 km
1000 / 3000 ft
1500m / 5 km
500 / 1000 ft
800 / 1500m
200 / 500 ft
< 800m
< 200 ft
Simboli :   Temporali  Nebbia  Neve Forte  Precipitazioni Forti  Vento > 20 kt






- Altitudine del aeroporto : 199 ft
- Codice IATA : YRQ


CYRQ - Trois-Rivières

ULTIMO METAR :
  • 220443Z AUTO 11006KT 6SM -SN SCT060 OVC075 M01/M02 A2978 RMK PRESFR SLP087

METARs OBSOLETI :
  • 220436Z AUTO 11004KT 5SM -SN FEW055 BKN077 OVC088 M01/M02 A2978 RMK PRESFR SLP090
  • 220428Z AUTO 11003KT 070V140 9SM -SN SCT055 OVC072 M01/M02 A2980 RMK PRESFR SLP094
  • 220412Z AUTO 13005KT 080V150 6SM -SN BKN065 OVC074 M01/M02 A2982 RMK SLP101
  • 220358Z AUTO 10006KT 9SM FEW049 OVC065 M01/M02 A2982 RMK SLP102
  • 220343Z AUTO 11005KT 9SM -SN BKN070 OVC089 M01/M02 A2983 RMK SLP105
  • 220300Z AUTO 11003KT 9SM OVC100 M01/M02 A2987 RMK PRESFR SLP120
  • 220200Z AUTO 14002KT 6SM BR OVC130 M01/M02 A2991 RMK SLP135
  • 220156Z AUTO VRB02KT 6SM BR OVC130 M01/M02 A2991 RMK SLP135

TAF TAF CYRQ
Valido dal 22 a 02 ore il 22 a 14 ore UTC


220138Z 2202/2214 12005KT 6SM BR OVC150
TEMPO 2202/2205 2SM BR BKN006
FM220500 12005KT 6SM -SN FEW003 OVC010
TEMPO 2205/2210 2SM -SNPL -FZRA BR OVC003
FM221000 15005KT 11/2SM -RA BR OVC004
BECMG 2212/2214 20015G25KT RMK FCST BASED ON AUTO OBS. NXT FCST BY 220800Z



MetMap, La meteo Aeronautica in un colpo d'occhio ! - Copyright ORBIFLY Dicembre 2007 - Disclaimer

ORBIFLY MET'MAP TEAM :

Programmazione e sviluppo : Alexandra Zaïnal
Concezione e sviluppo : Baudouin d'Aumeries
Co-Programmazione e sviluppo : Marc-Olivier Méhu
Supporto tecnico e logistico : Manuel Goepfert
Aiuto per la traduzione : Arnaldo La Scala

Contatto : metmap@orbifly.com




FONTI E CREDITI :

   NOAA